Time;durP1;ratioP1;P1;durP2;ratioP2;P2;SDS_P1;SDS_P2;PMS_P1;PMS_P2;Temp;Humidity;BMP_temperature;BMP_pressure;BME280_temperature;BME280_humidity;BME280_pressure;Samples;Min_cycle;Max_cycle;Signal;HPM_P1;HPM_P2
2022/03/07 00:00:31;;;;;;;;;2.75;2.75;15.70;99.90;;;;;;5048572;28;10607;-57
2022/03/07 00:03:04;;;;;;;;;2.25;1.25;15.60;99.90;;;;;;5049960;28;10834;-58
2022/03/07 00:05:35;;;;;;;;;1.00;1.00;15.60;99.90;;;;;;5058087;28;10676;-56
2022/03/07 00:08:06;;;;;;;;;2.50;2.00;15.60;99.90;;;;;;5053229;28;10699;-57
2022/03/07 00:10:57;;;;;;;;;2.00;2.00;15.60;99.90;;;;;;5052170;28;10518;-57
2022/03/07 00:13:27;;;;;;;;;2.00;2.00;15.50;99.90;;;;;;5055815;28;10479;-57
2022/03/07 00:15:59;;;;;;;;;2.00;2.00;15.50;99.90;;;;;;5047041;28;10960;-57
2022/03/07 00:18:32;;;;;;;;;2.00;2.00;15.50;99.90;;;;;;5050223;28;10756;-58
2022/03/07 00:21:05;;;;;;;;;3.00;3.00;15.50;99.90;;;;;;5047978;28;11976;-57
2022/03/07 00:23:36;;;;;;;;;2.75;2.00;15.50;99.90;;;;;;5051096;28;11532;-58
2022/03/07 00:26:06;;;;;;;;;2.75;2.75;15.50;99.90;;;;;;5050560;28;10909;-58
2022/03/07 00:28:36;;;;;;;;;1.00;1.00;15.50;99.90;;;;;;5056810;28;10831;-58
2022/03/07 00:31:09;;;;;;;;;4.00;2.50;15.50;99.90;;;;;;5048196;28;10645;-58
2022/03/07 00:33:42;;;;;;;;;4.50;3.00;15.40;99.90;;;;;;5052458;28;10824;-57
2022/03/07 00:36:12;;;;;;;;;3.50;3.50;15.40;99.90;;;;;;5055306;28;11762;-58
2022/03/07 00:38:44;;;;;;;;;3.00;3.00;15.40;99.90;;;;;;5053323;28;10887;-56
2022/03/07 00:41:16;;;;;;;;;2.75;2.75;15.30;99.90;;;;;;5051286;28;10904;-59
2022/03/07 00:43:50;;;;;;;;;2.00;2.00;15.30;99.90;;;;;;5048627;28;10942;-58
2022/03/07 00:46:22;;;;;;;;;2.50;2.50;15.30;99.90;;;;;;5045137;28;10874;-57
2022/03/07 00:48:57;;;;;;;;;2.00;2.00;15.30;99.90;;;;;;5047241;28;10881;-56
2022/03/07 00:51:32;;;;;;;;;3.25;2.00;15.20;99.90;;;;;;5049706;28;10905;-59
2022/03/07 00:54:04;;;;;;;;;3.00;3.00;15.20;99.90;;;;;;5053014;28;11638;-58
2022/03/07 00:56:34;;;;;;;;;3.50;3.50;15.10;99.90;;;;;;5048480;28;10901;-59
2022/03/07 00:59:08;;;;;;;;;3.50;3.50;15.10;99.90;;;;;;5051722;28;11512;-58
2022/03/07 01:01:41;;;;;;;;;2.00;1.00;15.10;99.90;;;;;;5051771;28;11097;-56
2022/03/07 01:04:17;;;;;;;;;2.00;2.00;14.90;99.90;;;;;;5049214;28;11145;-59
2022/03/07 01:06:50;;;;;;;;;4.25;2.75;14.90;99.90;;;;;;5050098;28;11234;-58
2022/03/07 01:09:22;;;;;;;;;3.50;3.50;14.90;99.90;;;;;;5049691;28;11453;-59
2022/03/07 01:11:56;;;;;;;;;3.25;3.25;14.90;99.90;;;;;;5047833;28;11357;-59
2022/03/07 01:14:27;;;;;;;;;2.25;2.25;14.80;99.90;;;;;;5052249;28;11213;-60
2022/03/07 01:16:57;;;;;;;;;4.50;3.00;14.70;99.90;;;;;;5048329;28;12002;-58
2022/03/07 01:19:27;;;;;;;;;4.50;3.00;14.80;99.90;;;;;;5048748;28;11163;-58
2022/03/07 01:21:58;;;;;;;;;3.00;3.00;14.70;99.90;;;;;;5045287;28;11154;-59
2022/03/07 01:24:30;;;;;;;;;5.25;2.75;14.70;99.90;;;;;;5035272;28;11217;-59
2022/03/07 01:27:01;;;;;;;;;3.00;3.00;14.60;99.90;;;;;;5047765;28;12094;-58
2022/03/07 01:29:32;;;;;;;;;2.00;2.00;14.60;99.90;;;;;;5049145;28;12310;-58
2022/03/07 01:32:04;;;;;;;;;4.00;4.00;14.50;99.90;;;;;;5045755;28;11426;-59
2022/03/07 01:34:34;;;;;;;;;2.25;2.25;14.50;99.90;;;;;;5048789;28;11955;-58
2022/03/07 01:37:07;;;;;;;;;3.75;2.00;14.50;99.90;;;;;;5047518;28;11497;-58
2022/03/07 01:39:38;;;;;;;;;3.00;3.00;14.50;99.90;;;;;;5046561;28;11436;-59
2022/03/07 01:42:10;;;;;;;;;3.00;3.00;14.40;99.90;;;;;;5054185;28;11504;-58
2022/03/07 01:44:41;;;;;;;;;2.50;2.50;14.40;99.90;;;;;;5047993;28;11488;-57
2022/03/07 01:47:13;;;;;;;;;3.25;3.25;14.40;99.90;;;;;;5048877;28;11444;-58
2022/03/07 01:49:45;;;;;;;;;4.00;2.50;14.30;99.90;;;;;;5035755;28;11473;-58
2022/03/07 01:52:18;;;;;;;;;2.75;2.75;14.30;99.90;;;;;;5057138;28;11502;-58
2022/03/07 01:54:50;;;;;;;;;3.00;3.00;14.30;99.90;;;;;;5047327;28;11226;-59
2022/03/07 01:57:21;;;;;;;;;4.00;3.00;14.30;99.90;;;;;;5056651;28;11467;-57
2022/03/07 01:59:52;;;;;;;;;3.00;2.00;14.20;99.90;;;;;;5047945;28;11518;-58
2022/03/07 02:02:24;;;;;;;;;2.25;2.25;14.10;99.90;;;;;;5056857;28;11890;-59
2022/03/07 02:04:56;;;;;;;;;2.00;2.00;14.10;99.90;;;;;;5050890;28;11447;-59
2022/03/07 02:07:28;;;;;;;;;3.50;3.50;14.10;99.90;;;;;;5053629;28;11440;-58
2022/03/07 02:10:00;;;;;;;;;3.00;3.00;14.10;99.90;;;;;;5050113;28;11423;-58
2022/03/07 02:12:33;;;;;;;;;2.50;2.50;14.20;99.90;;;;;;5049706;28;11540;-58
2022/03/07 02:15:07;;;;;;;;;2.75;2.75;14.10;99.90;;;;;;5044933;28;11751;-58
2022/03/07 02:17:38;;;;;;;;;3.00;3.00;14.00;99.90;;;;;;5048975;28;11456;-58
2022/03/07 02:20:11;;;;;;;;;0.50;0.50;14.00;99.90;;;;;;5045854;28;11443;-57
2022/03/07 02:22:44;;;;;;;;;3.75;2.50;14.00;99.90;;;;;;5051859;28;11443;-58
2022/03/07 02:25:16;;;;;;;;;3.00;3.00;14.00;99.90;;;;;;5053430;28;11532;-57
2022/03/07 02:27:47;;;;;;;;;2.00;2.00;14.00;99.90;;;;;;5051011;28;11518;-59
2022/03/07 02:30:17;;;;;;;;;5.00;3.25;14.00;99.90;;;;;;5046534;28;11435;-58
2022/03/07 02:32:51;;;;;;;;;3.00;3.00;13.90;99.90;;;;;;5055619;28;11439;-58
2022/03/07 02:35:24;;;;;;;;;5.50;4.75;13.90;99.90;;;;;;5042456;28;11711;-58
2022/03/07 02:37:55;;;;;;;;;3.00;3.00;13.90;99.90;;;;;;5056207;28;11439;-57
2022/03/07 02:40:24;;;;;;;;;2.00;2.00;13.80;99.90;;;;;;5061707;28;11815;-57
2022/03/07 02:43:18;;;;;;;;;3.00;3.00;13.80;99.90;;;;;;5052576;28;11524;-57
2022/03/07 02:45:51;;;;;;;;;2.50;2.50;13.80;99.90;;;;;;5046425;28;11440;-60
2022/03/07 02:48:23;;;;;;;;;4.00;3.00;13.80;99.90;;;;;;5053107;28;11467;-57
2022/03/07 02:50:58;;;;;;;;;2.75;2.75;13.70;99.90;;;;;;5039240;28;13810;-59
2022/03/07 02:53:29;;;;;;;;;4.75;4.75;13.60;99.90;;;;;;5051530;28;11504;-58
2022/03/07 02:56:01;;;;;;;;;1.75;1.75;13.70;99.90;;;;;;5051692;28;11452;-58
2022/03/07 02:58:32;;;;;;;;;2.25;2.25;13.70;99.90;;;;;;5054915;28;11448;-58
2022/03/07 03:01:05;;;;;;;;;4.25;4.00;13.70;99.90;;;;;;5051198;27;11470;-57
2022/03/07 03:03:36;;;;;;;;;2.00;2.00;13.70;99.90;;;;;;5053802;28;11447;-56
2022/03/07 03:06:09;;;;;;;;;5.25;3.25;13.60;99.90;;;;;;5055768;28;11464;-57
2022/03/07 03:08:41;;;;;;;;;4.75;3.00;13.60;99.90;;;;;;5050793;28;11449;-58
2022/03/07 03:11:11;;;;;;;;;4.00;3.00;13.60;99.90;;;;;;5051805;28;11437;-58
2022/03/07 03:13:41;;;;;;;;;2.00;2.00;13.60;99.90;;;;;;5056950;28;11503;-59
2022/03/07 03:16:17;;;;;;;;;5.75;4.50;13.50;99.90;;;;;;5049579;28;11467;-58
2022/03/07 03:18:48;;;;;;;;;3.25;3.25;13.50;99.90;;;;;;5049542;28;11414;-57
2022/03/07 03:21:20;;;;;;;;;3.50;3.50;13.50;99.90;;;;;;5053129;28;11457;-60
2022/03/07 03:23:52;;;;;;;;;3.50;3.50;13.50;99.90;;;;;;5050563;28;11509;-59
2022/03/07 03:26:23;;;;;;;;;3.00;3.00;13.50;99.90;;;;;;5053459;28;11532;-60
2022/03/07 03:28:57;;;;;;;;;2.00;0.75;13.50;99.90;;;;;;5052056;28;11445;-58
2022/03/07 03:31:28;;;;;;;;;2.00;1.50;13.50;99.90;;;;;;5053479;28;11425;-58
2022/03/07 03:34:00;;;;;;;;;3.25;3.00;13.40;99.90;;;;;;5058494;28;11449;-59
2022/03/07 03:36:32;;;;;;;;;2.00;2.00;13.40;99.90;;;;;;5052020;28;12285;-57
2022/03/07 03:39:02;;;;;;;;;5.25;4.00;13.40;99.90;;;;;;5050832;28;12047;-57
2022/03/07 03:41:34;;;;;;;;;6.00;3.25;13.50;99.90;;;;;;5054827;28;11465;-57
2022/03/07 03:44:03;;;;;;;;;3.00;3.00;13.40;99.90;;;;;;5055088;28;11982;-57
2022/03/07 03:46:37;;;;;;;;;3.00;3.00;13.40;99.90;;;;;;5049635;28;11442;-57
2022/03/07 03:49:07;;;;;;;;;4.75;4.75;13.30;99.90;;;;;;5055357;28;11440;-59
2022/03/07 03:51:40;;;;;;;;;4.25;3.25;13.30;99.90;;;;;;5055367;28;11508;-60
2022/03/07 03:54:10;;;;;;;;;2.75;2.75;13.20;99.90;;;;;;5049523;28;11437;-59
2022/03/07 03:56:41;;;;;;;;;5.25;4.00;13.30;99.90;;;;;;5053855;28;11422;-56
2022/03/07 03:59:13;;;;;;;;;2.25;2.25;13.30;99.90;;;;;;5055222;28;12300;-58
2022/03/07 04:01:45;;;;;;;;;3.25;3.25;13.20;99.90;;;;;;5052616;28;11504;-56
2022/03/07 04:04:18;;;;;;;;;2.75;2.75;13.20;99.90;;;;;;5054013;28;11496;-60
2022/03/07 04:06:51;;;;;;;;;4.00;2.75;13.20;99.90;;;;;;5048356;28;12239;-60
2022/03/07 04:09:26;;;;;;;;;4.50;3.25;13.20;99.90;;;;;;5054139;28;11437;-60
2022/03/07 04:11:58;;;;;;;;;4.50;4.50;13.20;99.90;;;;;;5050900;28;11468;-60
2022/03/07 04:14:29;;;;;;;;;3.25;2.25;13.20;99.90;;;;;;5052790;28;11456;-58
2022/03/07 04:17:02;;;;;;;;;4.25;2.75;13.20;99.90;;;;;;5053967;28;11439;-59
2022/03/07 04:19:32;;;;;;;;;3.25;3.25;13.20;99.90;;;;;;5053121;28;12195;-59
2022/03/07 04:22:04;;;;;;;;;2.00;2.00;13.10;99.90;;;;;;5049792;28;11475;-59
2022/03/07 04:24:35;;;;;;;;;1.50;1.50;13.10;99.90;;;;;;5055429;28;11433;-59
2022/03/07 04:27:06;;;;;;;;;5.75;4.75;13.10;99.90;;;;;;5054198;28;11431;-58
2022/03/07 04:29:41;;;;;;;;;3.00;3.00;13.00;99.90;;;;;;5049981;28;11483;-59
2022/03/07 04:32:13;;;;;;;;;5.75;5.75;13.00;99.90;;;;;;5053736;28;11492;-57
2022/03/07 04:34:47;;;;;;;;;5.25;5.00;13.00;99.90;;;;;;5054550;28;11267;-56
2022/03/07 04:37:19;;;;;;;;;3.25;3.25;13.10;99.90;;;;;;5054784;28;11461;-57
2022/03/07 04:39:50;;;;;;;;;3.50;3.50;13.00;99.90;;;;;;5035976;28;11477;-59
2022/03/07 04:42:21;;;;;;;;;7.75;6.75;13.00;99.90;;;;;;5055148;28;11439;-56
2022/03/07 04:44:54;;;;;;;;;4.00;4.00;13.00;99.90;;;;;;5053986;28;11433;-58
2022/03/07 04:47:24;;;;;;;;;7.00;4.25;13.00;99.90;;;;;;5049963;28;11453;-58
2022/03/07 04:49:58;;;;;;;;;7.00;5.25;13.00;99.90;;;;;;5046733;28;11555;-58
2022/03/07 04:52:28;;;;;;;;;6.25;4.50;13.00;99.90;;;;;;5052126;28;11482;-57
2022/03/07 04:55:04;;;;;;;;;2.50;2.50;12.90;99.90;;;;;;5052558;28;11630;-57
2022/03/07 04:57:37;;;;;;;;;4.50;4.50;12.90;99.90;;;;;;5048767;28;12288;-57
2022/03/07 05:00:10;;;;;;;;;5.25;3.50;12.90;99.90;;;;;;5051899;28;11474;-57
2022/03/07 05:02:41;;;;;;;;;4.00;4.00;12.90;99.90;;;;;;5050241;28;11447;-58
2022/03/07 05:05:12;;;;;;;;;4.50;4.50;12.90;99.90;;;;;;5050741;28;11511;-56
2022/03/07 05:07:45;;;;;;;;;2.25;2.25;12.80;99.90;;;;;;5045491;28;11507;-57
2022/03/07 05:10:20;;;;;;;;;5.25;4.50;12.80;99.90;;;;;;5045350;28;11515;-57
2022/03/07 05:12:58;;;;;;;;;2.00;2.00;12.80;99.90;;;;;;5054601;28;12299;-58
2022/03/07 05:15:29;;;;;;;;;3.00;3.00;12.80;99.90;;;;;;5059339;28;11530;-57
2022/03/07 05:18:02;;;;;;;;;3.25;3.25;12.70;99.90;;;;;;5056623;28;11513;-59
2022/03/07 05:20:33;;;;;;;;;7.00;4.50;12.70;99.90;;;;;;5053735;28;11541;-59
2022/03/07 05:23:24;;;;;;;;;4.50;4.50;12.70;99.90;;;;;;5052255;28;11516;-59
2022/03/07 05:25:55;;;;;;;;;3.00;3.00;12.60;99.90;;;;;;5048759;28;11500;-59
2022/03/07 05:28:27;;;;;;;;;3.00;3.00;12.60;99.90;;;;;;5054503;28;11560;-58
2022/03/07 05:30:59;;;;;;;;;6.25;6.25;12.60;99.90;;;;;;5051045;28;11521;-59
2022/03/07 05:33:32;;;;;;;;;3.75;3.75;12.60;99.90;;;;;;5054921;28;11533;-56
2022/03/07 05:36:06;;;;;;;;;4.50;4.50;12.60;99.90;;;;;;5051642;28;12336;-57
2022/03/07 05:38:37;;;;;;;;;1.25;1.25;12.50;99.90;;;;;;5051066;28;11495;-58
2022/03/07 05:41:09;;;;;;;;;5.25;3.50;12.50;99.90;;;;;;5052613;28;11527;-58
2022/03/07 05:43:39;;;;;;;;;7.25;5.75;12.50;99.90;;;;;;5052772;28;11476;-56
2022/03/07 05:46:17;;;;;;;;;6.25;4.50;12.50;99.90;;;;;;5045592;28;11681;-57
2022/03/07 05:48:48;;;;;;;;;4.25;3.00;12.50;99.90;;;;;;5043481;28;11522;-56
2022/03/07 05:51:23;;;;;;;;;3.00;3.00;12.50;99.90;;;;;;5049416;28;13839;-57
2022/03/07 05:53:54;;;;;;;;;4.00;4.00;12.50;99.90;;;;;;5048063;28;11531;-56
2022/03/07 05:56:25;;;;;;;;;3.00;3.00;12.40;99.90;;;;;;5047065;28;11540;-57
2022/03/07 05:58:58;;;;;;;;;3.25;3.25;12.40;99.90;;;;;;5051666;28;12041;-58
2022/03/07 06:01:28;;;;;;;;;2.00;2.00;12.40;99.90;;;;;;5046442;28;11523;-57
2022/03/07 06:03:59;;;;;;;;;6.00;4.00;12.40;99.90;;;;;;5051972;28;11550;-59
2022/03/07 06:06:32;;;;;;;;;2.00;2.00;12.40;99.90;;;;;;5049819;28;11567;-58
2022/03/07 06:09:03;;;;;;;;;5.00;2.00;12.30;99.90;;;;;;5047438;28;12369;-57
2022/03/07 06:11:34;;;;;;;;;5.75;5.00;12.30;99.90;;;;;;5049417;28;11481;-57
2022/03/07 06:14:04;;;;;;;;;4.00;4.00;12.30;99.90;;;;;;5047442;28;11529;-59
2022/03/07 06:16:38;;;;;;;;;8.75;7.25;12.30;99.90;;;;;;5047989;28;11491;-57
2022/03/07 06:19:12;;;;;;;;;7.50;6.75;12.20;99.90;;;;;;5052802;28;11514;-56
2022/03/07 06:21:43;;;;;;;;;9.75;9.75;12.20;99.90;;;;;;5045216;28;11502;-56
2022/03/07 06:24:14;;;;;;;;;12.75;12.75;12.20;99.90;;;;;;5048644;28;11541;-57
2022/03/07 06:26:49;;;;;;;;;15.00;15.00;12.20;99.90;;;;;;5045120;28;11557;-57
2022/03/07 06:29:23;;;;;;;;;21.67;21.67;12.10;99.90;;;;;;5045583;28;11571;-59
2022/03/07 06:31:59;;;;;;;;;33.00;32.00;12.10;99.90;;;;;;5048846;28;11540;-58
2022/03/07 06:34:31;;;;;;;;;47.00;41.33;12.10;99.90;;;;;;5051412;28;8843;-58
2022/03/07 06:37:03;;;;;;;;;48.33;41.00;12.10;99.90;;;;;;5044276;28;8855;-56
2022/03/07 06:39:33;;;;;;;;;50.33;43.67;12.10;99.90;;;;;;5052845;28;8842;-57
2022/03/07 06:42:06;;;;;;;;;50.00;43.00;12.00;99.90;;;;;;5050288;28;8839;-57
2022/03/07 06:44:39;;;;;;;;;51.67;43.67;12.00;99.90;;;;;;5050309;28;8867;-59
2022/03/07 06:47:11;;;;;;;;;48.67;42.00;12.00;99.90;;;;;;5049462;28;8852;-60
2022/03/07 06:49:43;;;;;;;;;49.33;41.67;12.00;99.90;;;;;;5048917;28;8859;-57
2022/03/07 06:52:14;;;;;;;;;41.67;38.33;11.90;99.90;;;;;;5055132;28;8841;-57
2022/03/07 06:54:44;;;;;;;;;19.33;19.00;11.90;99.90;;;;;;5048805;28;8856;-57
2022/03/07 06:57:14;;;;;;;;;7.75;7.75;11.90;99.90;;;;;;5053054;28;8863;-57
2022/03/07 06:59:45;;;;;;;;;6.25;6.25;11.90;99.90;;;;;;5045886;28;11592;-58
2022/03/07 07:02:18;;;;;;;;;6.25;5.25;11.80;99.90;;;;;;5049770;28;11572;-58
2022/03/07 07:04:48;;;;;;;;;5.75;5.75;11.80;99.90;;;;;;5048222;28;11544;-58
2022/03/07 07:07:19;;;;;;;;;8.25;8.00;11.80;99.90;;;;;;5051562;28;11564;-58
2022/03/07 07:09:51;;;;;;;;;7.75;7.50;11.80;99.90;;;;;;5045863;28;11564;-56
2022/03/07 07:12:22;;;;;;;;;9.75;7.75;11.60;99.90;;;;;;5055607;28;11553;-59
2022/03/07 07:14:56;;;;;;;;;7.50;7.50;11.60;99.90;;;;;;5051079;28;11503;-59
2022/03/07 07:17:26;;;;;;;;;10.25;9.00;11.60;99.90;;;;;;5055731;28;11506;-58
2022/03/07 07:19:56;;;;;;;;;8.25;8.25;11.60;99.90;;;;;;5054281;28;11555;-58
2022/03/07 07:22:26;;;;;;;;;10.50;8.00;11.60;99.90;;;;;;5050163;28;11552;-59
2022/03/07 07:25:02;;;;;;;;;7.00;7.00;11.60;99.90;;;;;;5051103;28;11573;-59
2022/03/07 07:27:35;;;;;;;;;10.75;10.50;11.60;99.90;;;;;;5050247;28;11494;-59
2022/03/07 07:30:09;;;;;;;;;8.50;8.50;11.50;99.90;;;;;;5055135;28;11535;-57
2022/03/07 07:32:41;;;;;;;;;5.00;5.00;11.50;99.90;;;;;;5053985;28;11514;-59
2022/03/07 07:35:11;;;;;;;;;6.00;6.00;11.50;99.90;;;;;;5056041;28;12179;-58
2022/03/07 07:37:42;;;;;;;;;6.00;6.00;11.50;99.90;;;;;;5050539;28;11528;-55
2022/03/07 07:40:16;;;;;;;;;6.75;6.75;11.40;99.90;;;;;;5057236;28;11650;-59
2022/03/07 07:42:46;;;;;;;;;9.00;9.00;11.40;99.90;;;;;;5049599;28;11563;-60
2022/03/07 07:45:16;;;;;;;;;8.00;6.25;11.40;99.90;;;;;;5056164;28;11602;-58
2022/03/07 07:47:48;;;;;;;;;10.50;9.25;11.30;99.90;;;;;;5047967;28;11534;-57
2022/03/07 07:50:19;;;;;;;;;9.50;7.00;11.30;99.90;;;;;;5055121;28;11622;-58
2022/03/07 07:52:49;;;;;;;;;7.00;5.00;11.30;99.90;;;;;;5049431;28;11535;-57
2022/03/07 07:55:20;;;;;;;;;5.25;5.25;11.30;99.90;;;;;;5052317;28;11550;-58
2022/03/07 07:57:51;;;;;;;;;5.00;5.00;11.30;99.90;;;;;;5049968;28;11544;-59
2022/03/07 08:00:28;;;;;;;;;7.25;5.50;11.20;99.90;;;;;;5051321;28;11924;-58
2022/03/07 08:02:59;;;;;;;;;6.00;6.00;11.20;99.90;;;;;;5051952;28;11502;-59
2022/03/07 08:05:33;;;;;;;;;6.00;6.00;11.20;99.90;;;;;;5053555;28;12260;-60
2022/03/07 08:08:02;;;;;;;;;5.50;5.50;11.10;99.90;;;;;;5052313;28;12266;-59
2022/03/07 08:10:33;;;;;;;;;7.25;5.50;11.10;99.90;;;;;;5055031;28;11529;-57
2022/03/07 08:13:03;;;;;;;;;6.25;6.25;11.10;99.90;;;;;;5051190;28;11564;-58
2022/03/07 08:15:34;;;;;;;;;4.75;4.75;11.10;99.90;;;;;;5048175;28;12272;-57
2022/03/07 08:18:05;;;;;;;;;4.75;4.75;11.00;99.90;;;;;;5050725;28;11481;-56
2022/03/07 08:20:37;;;;;;;;;6.25;4.75;11.00;99.90;;;;;;5051549;28;11497;-56
2022/03/07 08:23:07;;;;;;;;;5.00;5.00;11.00;99.90;;;;;;5046025;28;11540;-59
2022/03/07 08:25:37;;;;;;;;;7.50;5.50;10.90;99.90;;;;;;5048808;28;11514;-59
2022/03/07 08:28:08;;;;;;;;;4.75;4.75;10.90;99.90;;;;;;5050009;28;11498;-58
2022/03/07 08:30:38;;;;;;;;;5.50;5.50;10.90;99.90;;;;;;5049483;28;11540;-57
2022/03/07 08:33:10;;;;;;;;;7.25;7.25;10.90;99.90;;;;;;5052030;28;11463;-57
2022/03/07 08:35:41;;;;;;;;;7.25;6.50;10.90;99.90;;;;;;5047736;28;11690;-56
2022/03/07 08:38:12;;;;;;;;;4.50;4.50;10.90;99.90;;;;;;5052130;28;11498;-59
2022/03/07 08:40:43;;;;;;;;;5.25;5.25;10.80;99.90;;;;;;5051002;28;11552;-60
2022/03/07 08:43:16;;;;;;;;;5.00;3.50;10.80;99.90;;;;;;5058914;28;12062;-57
2022/03/07 08:45:46;;;;;;;;;2.75;2.75;10.70;99.90;;;;;;5049148;28;11548;-57
2022/03/07 08:48:25;;;;;;;;;5.00;5.00;10.70;99.90;;;;;;5050718;28;11507;-57
2022/03/07 08:50:56;;;;;;;;;4.75;4.00;10.70;99.90;;;;;;5045927;28;11562;-59
2022/03/07 08:53:27;;;;;;;;;4.75;4.75;10.70;99.90;;;;;;5050433;28;11825;-59
2022/03/07 08:55:57;;;;;;;;;3.00;3.00;10.60;99.90;;;;;;5052120;28;11523;-59
2022/03/07 08:58:47;;;;;;;;;4.00;4.00;10.60;99.90;;;;;;5052896;28;11917;-59
2022/03/07 09:01:20;;;;;;;;;5.00;4.00;10.60;99.90;;;;;;5046575;28;11488;-59
2022/03/07 09:03:50;;;;;;;;;2.75;2.75;10.50;99.90;;;;;;5047220;28;11537;-57
2022/03/07 09:06:21;;;;;;;;;3.50;2.50;10.50;99.90;;;;;;5049375;28;11513;-57
2022/03/07 09:08:51;;;;;;;;;4.50;4.00;10.50;99.90;;;;;;5047834;28;11492;-58
2022/03/07 09:11:24;;;;;;;;;3.25;3.25;10.50;99.90;;;;;;5051248;28;12206;-57
2022/03/07 09:13:55;;;;;;;;;5.75;4.25;10.50;99.90;;;;;;5047743;28;12185;-58
2022/03/07 09:16:30;;;;;;;;;4.00;4.00;10.40;99.90;;;;;;5047260;28;12216;-57
2022/03/07 09:19:01;;;;;;;;;3.00;3.00;10.40;99.90;;;;;;5054475;28;11521;-57
2022/03/07 09:21:32;;;;;;;;;3.50;3.50;10.40;99.90;;;;;;5048248;28;11593;-59
2022/03/07 09:24:04;;;;;;;;;4.00;4.00;10.40;99.90;;;;;;5046559;28;11708;-56
2022/03/07 09:26:35;;;;;;;;;5.00;3.25;10.30;99.90;;;;;;5052267;28;11537;-56
2022/03/07 09:29:07;;;;;;;;;2.25;2.25;10.30;99.90;;;;;;5046387;28;11907;-59
2022/03/07 09:31:39;;;;;;;;;3.25;3.25;10.30;99.90;;;;;;5052201;28;12202;-59
2022/03/07 09:34:10;;;;;;;;;5.25;5.25;10.20;99.90;;;;;;5049159;28;11484;-59
2022/03/07 09:36:42;;;;;;;;;4.00;3.00;10.20;99.90;;;;;;5055058;28;11538;-59
2022/03/07 09:39:13;;;;;;;;;3.00;3.00;10.10;99.90;;;;;;5044437;28;11518;-59
2022/03/07 09:41:44;;;;;;;;;4.50;4.50;10.10;99.90;;;;;;5049590;28;11518;-60
2022/03/07 09:44:14;;;;;;;;;3.00;3.00;10.10;99.90;;;;;;5049857;28;11536;-57
2022/03/07 09:46:48;;;;;;;;;4.50;4.00;10.10;99.90;;;;;;5048256;28;11647;-60
2022/03/07 09:49:19;;;;;;;;;4.25;3.00;10.10;99.90;;;;;;5049321;28;11547;-58
2022/03/07 09:51:52;;;;;;;;;4.25;4.25;10.10;99.90;;;;;;5052480;28;11492;-59
2022/03/07 09:54:24;;;;;;;;;4.00;4.00;10.00;99.90;;;;;;5050925;28;11538;-57
2022/03/07 09:56:56;;;;;;;;;5.75;4.00;10.00;99.90;;;;;;5050463;28;12289;-59
2022/03/07 09:59:30;;;;;;;;;3.75;3.75;9.90;99.90;;;;;;5048459;28;11482;-58
2022/03/07 10:02:04;;;;;;;;;9.50;9.50;9.90;99.90;;;;;;5047655;28;11532;-57
2022/03/07 10:04:42;;;;;;;;;7.50;7.50;10.00;99.90;;;;;;5048447;28;11532;-57
2022/03/07 10:07:16;;;;;;;;;5.50;3.75;10.00;99.90;;;;;;5046670;28;11510;-58
2022/03/07 10:09:47;;;;;;;;;4.00;4.00;10.00;99.90;;;;;;5049162;28;12114;-58
2022/03/07 10:12:29;;;;;;;;;4.00;4.00;10.00;99.90;;;;;;5045825;28;11543;-58
2022/03/07 10:15:15;;;;;;;;;4.25;4.00;9.90;99.90;;;;;;5045714;28;12233;-58
2022/03/07 10:17:55;;;;;;;;;7.50;7.50;9.80;99.90;;;;;;5051892;28;11520;-58
2022/03/07 10:20:27;;;;;;;;;3.75;3.75;9.80;99.90;;;;;;5048310;28;11688;-56
2022/03/07 10:23:00;;;;;;;;;6.25;6.25;9.70;99.90;;;;;;5051666;28;11500;-58
2022/03/07 10:25:35;;;;;;;;;3.75;3.50;9.70;99.90;;;;;;5045172;28;11577;-59
2022/03/07 10:28:08;;;;;;;;;4.00;4.00;9.80;99.90;;;;;;5052823;28;12287;-59
2022/03/07 10:30:39;;;;;;;;;5.00;5.00;9.70;99.90;;;;;;5047296;28;11520;-59
2022/03/07 10:33:14;;;;;;;;;5.00;5.00;9.70;99.90;;;;;;5048601;28;11502;-59
2022/03/07 10:35:49;;;;;;;;;5.75;5.75;9.70;99.90;;;;;;5047424;28;11498;-58
2022/03/07 10:38:21;;;;;;;;;5.00;5.00;9.60;99.90;;;;;;5050069;28;11513;-60
2022/03/07 10:40:55;;;;;;;;;4.25;4.00;9.50;99.90;;;;;;5046462;28;11593;-59
2022/03/07 10:43:25;;;;;;;;;4.00;4.00;9.50;99.90;;;;;;5053467;28;12265;-58
2022/03/07 10:46:02;;;;;;;;;5.75;5.75;9.50;99.90;;;;;;5048424;28;11535;-58
2022/03/07 10:48:43;;;;;;;;;7.00;7.00;9.50;99.90;;;;;;5054836;28;12316;-59
2022/03/07 10:51:20;;;;;;;;;4.00;4.00;9.50;99.90;;;;;;5047540;28;11506;-59
2022/03/07 10:53:53;;;;;;;;;5.50;5.50;9.50;99.90;;;;;;5059803;28;11533;-57
2022/03/07 10:56:25;;;;;;;;;3.75;3.75;9.50;99.90;;;;;;5052269;28;11497;-57
2022/03/07 10:58:57;;;;;;;;;4.00;4.00;9.50;99.90;;;;;;5054165;28;11564;-58
2022/03/07 11:01:33;;;;;;;;;7.00;7.00;9.50;99.90;;;;;;5051360;28;11509;-57
2022/03/07 11:04:03;;;;;;;;;4.25;4.25;9.50;99.90;;;;;;5056565;28;12349;-59
2022/03/07 11:06:34;;;;;;;;;4.00;4.00;9.40;99.90;;;;;;5051335;28;11547;-59
2022/03/07 11:09:04;;;;;;;;;5.50;5.00;9.40;99.90;;;;;;5047291;28;11570;-58
2022/03/07 11:11:36;;;;;;;;;5.00;5.00;9.30;99.90;;;;;;5051883;28;11537;-59
2022/03/07 11:14:07;;;;;;;;;4.00;4.00;9.30;99.90;;;;;;5056594;28;11497;-58
2022/03/07 11:16:39;;;;;;;;;5.00;5.00;9.30;99.90;;;;;;5052245;28;11491;-59
2022/03/07 11:19:16;;;;;;;;;4.00;4.00;9.30;99.90;;;;;;5051600;28;11518;-59
2022/03/07 11:21:51;;;;;;;;;5.00;5.00;9.30;99.90;;;;;;5040838;28;11496;-58
2022/03/07 11:24:24;;;;;;;;;3.00;3.00;9.30;99.90;;;;;;5057985;28;11499;-57
2022/03/07 11:26:55;;;;;;;;;4.00;4.00;9.20;99.90;;;;;;5042142;28;11515;-58
2022/03/07 11:29:37;;;;;;;;;6.25;6.25;9.20;99.90;;;;;;5052605;28;11729;-58
2022/03/07 11:32:10;;;;;;;;;5.00;5.00;9.10;99.90;;;;;;5054007;28;12562;-59
2022/03/07 11:34:58;;;;;;;;;4.75;3.00;9.10;99.90;;;;;;5051728;28;12893;-57
2022/03/07 11:37:34;;;;;;;;;7.25;5.00;9.20;99.90;;;;;;5054367;28;11924;-57
2022/03/07 11:40:19;;;;;;;;;4.75;4.50;9.20;99.90;;;;;;5054649;28;11492;-58
2022/03/07 11:42:49;;;;;;;;;4.75;4.75;9.10;99.90;;;;;;5049881;28;11546;-59
2022/03/07 11:45:23;;;;;;;;;6.00;5.00;9.10;99.90;;;;;;5047852;28;11524;-58
2022/03/07 11:47:53;;;;;;;;;4.50;4.50;9.00;99.90;;;;;;5053570;28;11538;-56
2022/03/07 11:50:24;;;;;;;;;4.00;2.75;9.00;99.90;;;;;;5053679;28;11499;-58
2022/03/07 11:53:06;;;;;;;;;6.50;6.50;9.00;99.90;;;;;;5049400;28;11750;-58
2022/03/07 11:55:44;;;;;;;;;1.00;1.00;9.00;99.90;;;;;;5053037;28;11518;-59
2022/03/07 11:58:25;;;;;;;;;4.00;4.00;9.00;99.90;;;;;;5052468;28;11495;-59
2022/03/07 12:01:13;;;;;;;;;2.25;2.25;8.90;99.90;;;;;;5042896;28;11503;-58
2022/03/07 12:03:44;;;;;;;;;4.00;4.00;8.90;99.90;;;;;;5049732;28;11509;-57
2022/03/07 12:06:18;;;;;;;;;7.00;4.50;8.90;99.90;;;;;;5050732;28;11535;-59
2022/03/07 12:08:57;;;;;;;;;5.00;5.00;8.90;99.90;;;;;;5050095;28;11535;-57
2022/03/07 12:11:30;;;;;;;;;5.75;5.75;8.80;99.90;;;;;;5055930;28;11485;-59
2022/03/07 12:14:07;;;;;;;;;6.25;5.00;8.80;99.90;;;;;;5051887;28;11597;-59
2022/03/07 12:16:41;;;;;;;;;5.50;4.75;8.80;99.90;;;;;;5053058;28;12272;-57
2022/03/07 12:19:18;;;;;;;;;5.00;5.00;8.80;99.90;;;;;;5032244;28;11547;-59
2022/03/07 12:21:49;;;;;;;;;4.00;2.50;8.80;99.90;;;;;;5049413;28;11682;-60
2022/03/07 12:24:22;;;;;;;;;7.00;7.00;8.80;99.90;;;;;;5056703;28;11519;-58
2022/03/07 12:26:57;;;;;;;;;7.00;7.00;8.70;99.90;;;;;;5052908;28;11542;-58
2022/03/07 12:29:28;;;;;;;;;4.00;4.00;8.70;99.90;;;;;;5048310;28;11504;-59
2022/03/07 12:32:06;;;;;;;;;5.75;5.00;8.70;99.90;;;;;;5046880;28;12306;-58
2022/03/07 12:34:39;;;;;;;;;8.00;8.00;8.70;99.90;;;;;;5050570;28;11555;-57
2022/03/07 12:37:20;;;;;;;;;4.75;3.00;8.70;99.90;;;;;;5046166;28;11556;-57
2022/03/07 12:39:58;;;;;;;;;8.75;7.00;8.70;99.90;;;;;;5050711;28;12263;-55
2022/03/07 12:42:32;;;;;;;;;5.75;5.75;8.70;99.90;;;;;;5047194;28;11563;-56
2022/03/07 12:45:04;;;;;;;;;4.75;4.75;8.70;99.90;;;;;;5050018;28;11518;-57
2022/03/07 12:47:38;;;;;;;;;3.50;3.50;8.60;99.90;;;;;;5045452;28;11570;-56
2022/03/07 12:50:10;;;;;;;;;2.50;2.50;8.60;99.90;;;;;;5049207;28;11511;-58
2022/03/07 12:52:45;;;;;;;;;4.00;4.00;8.60;99.90;;;;;;5049185;28;11562;-57
2022/03/07 12:55:17;;;;;;;;;3.75;3.75;8.60;99.90;;;;;;5051979;28;11520;-59
2022/03/07 12:57:55;;;;;;;;;2.25;2.25;8.60;99.90;;;;;;5045646;28;11506;-57
2022/03/07 13:00:32;;;;;;;;;7.50;4.25;8.60;99.90;;;;;;5045848;28;11625;-58
2022/03/07 13:03:05;;;;;;;;;4.50;4.50;8.60;99.90;;;;;;5042788;28;11501;-57
2022/03/07 13:05:35;;;;;;;;;5.50;2.25;8.50;99.90;;;;;;5052862;28;12228;-57
2022/03/07 13:08:07;;;;;;;;;6.00;6.00;8.50;99.90;;;;;;5044021;28;11523;-58
2022/03/07 13:10:49;;;;;;;;;4.00;4.00;8.50;99.90;;;;;;5048339;28;11550;-60
2022/03/07 13:13:20;;;;;;;;;4.00;4.00;8.50;99.90;;;;;;5046541;28;11566;-59
2022/03/07 13:15:51;;;;;;;;;2.00;2.00;8.50;99.90;;;;;;5051291;28;11496;-57